Time;durP1;ratioP1;P1;durP2;ratioP2;P2;SDS_P1;SDS_P2;PMS_P1;PMS_P2;Temp;Humidity;BMP_temperature;BMP_pressure;BME280_temperature;BME280_humidity;BME280_pressure;Samples;Min_cycle;Max_cycle;Signal;HPM_P1;HPM_P2
2022/09/15 00:02:00;;;;;;;4.60;3.20;;;;;;;13.33;77.22;96619.78;109985;1247;69422;-67
2022/09/15 00:04:30;;;;;;;;;;;;;;;13.31;77.20;96625.19;110023;1247;59768;-66
2022/09/15 00:07:00;;;;;;;5.20;3.70;;;;;;;13.30;77.82;96627.06;110033;1247;59743;-66
2022/09/15 00:09:29;;;;;;;6.30;3.90;;;;;;;13.28;79.85;96634.27;110062;1248;71520;-66
2022/09/15 00:11:58;;;;;;;4.00;2.70;;;;;;;13.24;80.75;96629.83;110010;1247;68967;-65
2022/09/15 00:14:28;;;;;;;3.40;3.00;;;;;;;13.23;77.47;96621.42;110028;1247;68634;-66
2022/09/15 00:17:00;;;;;;;4.30;3.90;;;;;;;13.21;77.84;96614.20;110056;1247;59757;-66
2022/09/15 00:19:30;;;;;;;4.30;3.20;;;;;;;13.19;78.58;96619.60;110032;1247;59691;-68
2022/09/15 00:22:00;;;;;;;4.50;3.60;;;;;;;13.17;78.92;96616.30;110018;1247;71448;-66
2022/09/15 00:24:30;;;;;;;4.50;3.60;;;;;;;13.15;80.50;96614.80;109997;1250;68668;-65
2022/09/15 00:27:00;;;;;;;3.50;3.00;;;;;;;13.12;80.40;96618.07;109917;1248;67549;-65
2022/09/15 00:29:30;;;;;;;4.40;3.40;;;;;;;13.09;79.04;96620.60;110091;1247;59698;-65
2022/09/15 00:32:01;;;;;;;4.40;2.80;;;;;;;13.08;78.47;96621.63;109970;1247;59689;-65
2022/09/15 00:34:31;;;;;;;3.40;2.80;;;;;;;13.08;78.94;96630.19;109885;1248;70403;-65
2022/09/15 00:37:01;;;;;;;3.40;3.00;;;;;;;13.08;78.92;96625.13;109752;1249;68708;-65
2022/09/15 00:39:33;;;;;;;5.10;2.90;;;;;;;13.06;79.92;96619.11;109839;1248;68682;-67
2022/09/15 00:42:05;;;;;;;3.50;2.80;;;;;;;13.06;78.44;96615.70;110030;1247;59757;-65
2022/09/15 00:44:35;;;;;;;4.80;3.60;;;;;;;13.04;78.38;96618.48;110093;1247;59760;-66
2022/09/15 00:47:06;;;;;;;4.70;3.00;;;;;;;13.01;78.30;96615.91;109859;1250;70829;-66
2022/09/15 00:49:54;;;;;;;4.40;2.40;;;;;;;12.99;78.35;96615.60;110099;1247;69407;-65
2022/09/15 00:52:30;;;;;;;4.10;3.60;;;;;;;12.97;81.21;96612.78;110090;1247;68631;-67
2022/09/15 00:55:11;;;;;;;4.10;3.20;;;;;;;12.95;82.99;96608.63;109955;1247;59771;-66
2022/09/15 00:57:53;;;;;;;3.20;2.50;;;;;;;12.92;80.73;96606.98;109993;1247;59718;-65
2022/09/15 01:00:26;;;;;;;3.20;2.80;;;;;;;12.90;78.88;96611.52;110013;1247;71612;-64
2022/09/15 01:02:57;;;;;;;4.80;3.70;;;;;;;12.90;79.41;96607.75;110026;1248;69259;-66
2022/09/15 01:05:45;;;;;;;5.20;4.10;;;;;;;12.87;79.51;96608.66;110027;1247;69410;-66
2022/09/15 01:08:41;;;;;;;3.60;3.00;;;;;;;12.85;80.56;96601.97;110070;1247;59720;-66
2022/09/15 01:11:13;;;;;;;4.10;3.30;;;;;;;12.84;81.07;96599.77;110084;1247;59651;-66
2022/09/15 01:13:45;;;;;;;4.30;3.10;;;;;;;12.82;80.90;96596.08;109768;1247;71601;-67
2022/09/15 01:16:47;;;;;;;3.60;3.00;;;;;;;12.81;80.57;96596.70;110043;1247;69653;-67
2022/09/15 01:19:55;;;;;;;4.10;3.20;;;;;;;12.80;80.42;96591.52;110328;1247;69427;-66
2022/09/15 01:22:25;;;;;;;4.20;3.60;;;;;;;12.78;80.49;96593.89;110050;1247;59653;-66
2022/09/15 01:25:07;;;;;;;4.20;3.20;;;;;;;12.76;82.38;96591.77;109928;1248;59717;-66
2022/09/15 01:27:51;;;;;;;4.00;3.30;;;;;;;12.74;82.73;96587.71;110166;1247;71392;-66
2022/09/15 01:30:25;;;;;;;3.50;2.90;;;;;;;12.73;80.68;96581.15;110054;1247;68397;-65
2022/09/15 01:33:15;;;;;;;5.50;3.60;;;;;;;12.74;80.53;96576.34;110074;1248;69392;-66
2022/09/15 01:36:12;;;;;;;4.50;3.80;;;;;;;12.74;82.70;96576.73;110022;1247;59764;-67
2022/09/15 01:39:01;;;;;;;5.20;4.30;;;;;;;12.73;85.77;96570.17;109934;1247;59761;-68
2022/09/15 01:42:02;;;;;;;6.80;3.90;;;;;;;12.71;85.14;96569.43;110095;1247;71661;-65
2022/09/15 01:44:40;;;;;;;4.00;3.40;;;;;;;12.69;84.70;96562.11;110029;1247;69523;-67
2022/09/15 01:47:14;;;;;;;6.40;4.10;;;;;;;12.69;83.69;96557.10;109975;1247;69630;-66
2022/09/15 01:49:50;;;;;;;4.40;3.40;;;;;;;12.68;83.64;96557.04;109872;1247;59729;-67
2022/09/15 01:52:23;;;;;;;6.10;3.70;;;;;;;12.67;85.23;96557.61;110017;1247;59688;-65
2022/09/15 01:54:57;;;;;;;4.10;3.50;;;;;;;12.66;84.62;96558.23;110023;1247;71514;-65
2022/09/15 01:57:29;;;;;;;3.90;3.30;;;;;;;12.66;84.55;96558.96;110161;1247;69489;-65
2022/09/15 01:59:59;;;;;;;4.00;3.10;;;;;;;12.66;83.63;96558.27;109946;1248;69453;-66
2022/09/15 02:02:57;;;;;;;3.60;3.10;;;;;;;12.66;82.84;96557.51;109987;1247;59732;-67
2022/09/15 02:05:36;;;;;;;3.90;3.00;;;;;;;12.69;83.62;96552.16;110010;1247;59681;-67
2022/09/15 02:08:24;;;;;;;4.00;3.50;;;;;;;12.73;84.49;96548.34;110206;1247;69727;-66
2022/09/15 02:11:10;;;;;;;4.10;3.40;;;;;;;12.76;84.48;96539.84;110140;1247;69416;-67
2022/09/15 02:13:51;;;;;;;4.30;3.30;;;;;;;12.79;84.12;96536.36;110068;1248;67778;-67
2022/09/15 02:16:25;;;;;;;4.10;3.30;;;;;;;12.81;83.50;96537.78;110160;1247;59720;-66
2022/09/15 02:19:35;;;;;;;3.00;2.70;;;;;;;12.83;83.46;96538.98;110043;1247;59724;-66
2022/09/15 02:22:22;;;;;;;3.50;2.90;;;;;;;12.87;83.26;96540.86;110087;1247;70682;-66
2022/09/15 02:24:56;;;;;;;4.10;3.40;;;;;;;12.91;82.99;96538.19;110146;1247;68667;-66
2022/09/15 02:27:30;;;;;;;3.00;2.70;;;;;;;12.96;82.66;96531.58;110133;1247;68566;-66
2022/09/15 02:30:08;;;;;;;4.00;3.30;;;;;;;13.02;82.42;96524.75;110043;1247;59715;-66
2022/09/15 02:33:08;;;;;;;4.60;3.60;;;;;;;13.06;83.26;96523.81;109883;1247;59630;-66
2022/09/15 02:35:40;;;;;;;3.80;3.10;;;;;;;13.11;85.53;96523.47;110114;1247;71357;-66
2022/09/15 02:38:11;;;;;;;3.40;3.00;;;;;;;13.15;84.92;96519.99;110051;1247;69434;-66
2022/09/15 02:40:43;;;;;;;3.80;2.90;;;;;;;13.20;83.23;96514.93;110140;1247;69501;-66
2022/09/15 02:43:16;;;;;;;3.30;2.40;;;;;;;13.24;82.33;96503.53;109812;1250;59773;-66
2022/09/15 02:45:48;;;;;;;3.40;2.80;;;;;;;13.29;82.19;96501.73;110019;1247;59716;-65
2022/09/15 02:48:19;;;;;;;4.90;3.70;;;;;;;13.32;81.71;96505.80;110128;1247;69764;-66
2022/09/15 02:50:48;;;;;;;3.80;3.10;;;;;;;13.35;81.81;96490.45;110048;1247;69465;-66
2022/09/15 02:53:18;;;;;;;;;;;;;;;13.38;81.73;96479.10;110130;1247;69427;-66
2022/09/15 02:55:50;;;;;;;5.20;3.70;;;;;;;13.38;81.96;96479.46;109832;1248;59753;-66
2022/09/15 02:58:22;;;;;;;4.00;3.40;;;;;;;13.38;84.64;96490.82;110140;1247;59651;-65
2022/09/15 03:00:51;;;;;;;4.10;3.40;;;;;;;13.40;85.09;96497.27;109928;1248;71539;-65
2022/09/15 03:03:22;;;;;;;3.80;3.20;;;;;;;13.42;85.87;96495.67;110160;1247;68718;-66
2022/09/15 03:05:54;;;;;;;5.40;3.70;;;;;;;13.44;85.10;96494.38;110014;1247;69344;-66
2022/09/15 03:08:23;;;;;;;3.70;3.20;;;;;;;13.47;85.32;96490.95;110128;1247;60064;-66
2022/09/15 03:10:56;;;;;;;4.80;3.40;;;;;;;13.51;84.24;96487.77;109944;1248;59771;-66
2022/09/15 03:13:25;;;;;;;5.10;3.60;;;;;;;13.57;85.50;96497.66;110033;1248;70802;-66
2022/09/15 03:15:55;;;;;;;;;;;;;;;13.61;84.08;96498.65;110118;1247;70075;-66
2022/09/15 03:18:25;;;;;;;5.30;3.20;;;;;;;13.65;83.88;96493.69;109969;1249;69483;-68
2022/09/15 03:20:55;;;;;;;4.30;3.20;;;;;;;13.70;83.29;96492.48;110092;1247;59700;-66
2022/09/15 03:23:25;;;;;;;3.10;2.70;;;;;;;13.77;83.24;96493.58;110115;1245;59701;-66
2022/09/15 03:25:55;;;;;;;3.50;2.80;;;;;;;13.83;83.58;96486.52;109964;1248;70901;-66
2022/09/15 03:28:25;;;;;;;3.60;2.90;;;;;;;13.88;83.92;96476.21;110226;1247;68457;-66
2022/09/15 03:30:55;;;;;;;4.70;3.70;;;;;;;13.93;85.45;96470.74;110053;1247;69875;-66
2022/09/15 03:33:25;;;;;;;4.00;3.60;;;;;;;13.98;85.38;96466.21;109981;1247;59748;-66
2022/09/15 03:35:56;;;;;;;5.60;4.10;;;;;;;14.05;85.33;96458.88;110025;1247;59658;-65
2022/09/15 03:38:26;;;;;;;5.80;3.70;;;;;;;14.13;83.45;96454.36;110205;1247;71525;-66
2022/09/15 03:41:00;;;;;;;;;;;;;;;14.23;84.50;96451.25;110112;1247;69383;-65
2022/09/15 03:43:31;;;;;;;4.40;3.40;;;;;;;14.29;84.65;96450.13;109974;1247;68456;-66
2022/09/15 03:46:01;;;;;;;4.60;3.60;;;;;;;14.35;84.42;96442.66;110170;1247;59784;-67
2022/09/15 03:48:33;;;;;;;4.70;3.50;;;;;;;14.43;84.24;96450.80;110094;1247;59640;-68
2022/09/15 03:51:04;;;;;;;4.80;3.20;;;;;;;14.49;83.89;96450.33;110039;1247;70764;-68
2022/09/15 03:53:38;;;;;;;4.00;3.60;;;;;;;14.58;82.98;96447.64;109906;1247;69637;-66
2022/09/15 03:56:20;;;;;;;4.70;3.40;;;;;;;14.66;83.41;96452.42;110133;1247;68698;-65
2022/09/15 03:58:50;;;;;;;5.00;4.30;;;;;;;14.70;83.91;96449.67;110123;1247;59700;-67
2022/09/15 04:01:21;;;;;;;3.90;3.40;;;;;;;14.74;83.70;96451.05;110188;1247;59685;-68
2022/09/15 04:03:50;;;;;;;;;;;;;;;14.76;83.26;96450.52;110003;1247;70976;-66
2022/09/15 04:06:21;;;;;;;3.80;3.40;;;;;;;14.79;83.06;96447.43;109805;1250;69406;-67
2022/09/15 04:08:50;;;;;;;5.00;3.40;;;;;;;14.82;82.74;96443.92;110089;1247;69543;-65
2022/09/15 04:11:21;;;;;;;3.50;3.00;;;;;;;14.86;83.51;96442.67;110186;1247;59691;-67
2022/09/15 04:13:52;;;;;;;3.80;3.30;;;;;;;14.87;83.72;96434.97;110136;1247;59766;-67
2022/09/15 04:16:23;;;;;;;5.50;3.80;;;;;;;14.89;83.30;96432.83;110028;1247;70693;-67
2022/09/15 04:18:54;;;;;;;4.80;3.70;;;;;;;14.90;83.44;96426.57;110321;1247;69350;-66
2022/09/15 04:21:25;;;;;;;4.10;3.60;;;;;;;14.92;83.16;96430.25;110229;1247;69521;-66
2022/09/15 04:23:54;;;;;;;5.80;3.20;;;;;;;14.94;83.37;96428.91;110035;1247;59691;-66
2022/09/15 04:26:33;;;;;;;4.00;3.20;;;;;;;14.97;82.99;96428.25;110109;1247;59636;-67
2022/09/15 04:29:03;;;;;;;4.60;3.40;;;;;;;15.01;83.14;96433.09;110206;1247;71530;-66
2022/09/15 04:31:32;;;;;;;5.00;3.50;;;;;;;15.06;83.29;96427.89;110124;1247;68918;-65
2022/09/15 04:34:02;;;;;;;;;;;;;;;15.09;83.07;96424.55;110129;1247;68723;-66
2022/09/15 04:36:31;;;;;;;3.40;2.80;;;;;;;15.12;82.92;96416.92;110148;1248;59761;-66
2022/09/15 04:39:00;;;;;;;3.30;3.00;;;;;;;15.14;83.13;96416.29;109989;1247;59751;-66
2022/09/15 04:41:29;;;;;;;4.00;3.50;;;;;;;15.14;84.17;96414.42;109878;1247;71122;-66
2022/09/15 04:43:59;;;;;;;3.90;2.90;;;;;;;15.09;83.22;96401.06;110191;1247;68559;-66
2022/09/15 04:46:29;;;;;;;5.70;3.90;;;;;;;15.07;82.03;96402.48;110054;1247;69474;-66
2022/09/15 04:48:59;;;;;;;5.70;4.80;;;;;;;15.05;84.76;96405.36;110068;1247;59650;-66
2022/09/15 04:51:28;;;;;;;6.50;4.60;;;;;;;15.04;84.63;96402.96;110193;1247;59725;-66
2022/09/15 04:53:57;;;;;;;5.30;4.80;;;;;;;15.05;85.21;96417.48;110214;1247;72257;-65
2022/09/15 04:56:26;;;;;;;5.70;3.90;;;;;;;15.06;86.61;96420.16;109937;1248;68703;-65
2022/09/15 04:58:58;;;;;;;4.40;4.00;;;;;;;15.07;86.96;96421.81;110041;1247;69583;-66
2022/09/15 05:01:33;;;;;;;4.80;3.80;;;;;;;15.09;85.79;96422.11;110109;1247;59731;-66
2022/09/15 05:04:03;;;;;;;4.00;3.60;;;;;;;15.18;84.41;96420.02;110178;1247;59741;-67
2022/09/15 05:06:33;;;;;;;;;;;;;;;15.31;85.41;96417.29;110257;1247;71994;-67
2022/09/15 05:09:05;;;;;;;4.00;3.60;;;;;;;15.39;86.03;96415.02;110194;1247;69392;-66
2022/09/15 05:11:38;;;;;;;5.60;3.60;;;;;;;15.46;84.77;96411.63;109992;1247;69461;-67
2022/09/15 05:14:10;;;;;;;5.20;4.50;;;;;;;15.52;84.83;96412.77;110050;1250;59770;-67
2022/09/15 05:16:40;;;;;;;4.40;3.60;;;;;;;15.54;84.65;96423.93;109942;1247;59697;-67
2022/09/15 05:19:14;;;;;;;5.70;3.70;;;;;;;15.59;84.96;96418.61;110058;1247;71384;-67
2022/09/15 05:21:45;;;;;;;3.90;3.50;;;;;;;15.65;85.13;96414.02;109815;1248;68909;-67
2022/09/15 05:24:15;;;;;;;4.80;3.30;;;;;;;15.73;84.76;96415.71;109870;1250;69406;-67
2022/09/15 05:26:46;;;;;;;4.90;4.00;;;;;;;15.82;85.42;96415.11;110133;1247;60078;-67
2022/09/15 05:29:18;;;;;;;4.30;3.60;;;;;;;15.91;84.42;96411.86;108395;1247;2297774;-67
2022/09/15 05:31:50;;;;;;;5.50;3.10;;;;;;;16.02;83.72;96407.77;109880;1250;69693;-67
2022/09/15 05:34:21;;;;;;;4.00;2.80;;;;;;;16.15;83.20;96407.41;110015;1247;69465;-67
2022/09/15 05:36:52;;;;;;;4.10;3.10;;;;;;;16.29;82.95;96402.00;109941;1247;68980;-68
2022/09/15 05:39:23;;;;;;;5.00;3.20;;;;;;;16.44;82.91;96405.27;110042;1247;59710;-67
2022/09/15 05:41:55;;;;;;;5.20;4.20;;;;;;;16.57;84.07;96395.71;109963;1247;59711;-67
2022/09/15 05:44:25;;;;;;;8.30;4.90;;;;;;;16.66;82.97;96388.49;110099;1247;70731;-68
2022/09/15 05:46:55;;;;;;;9.50;5.80;;;;;;;16.72;83.75;96391.16;110098;1246;69390;-67
2022/09/15 05:49:28;;;;;;;7.20;5.20;;;;;;;16.78;83.92;96390.30;109876;1250;69428;-67
2022/09/15 05:52:01;;;;;;;5.60;4.80;;;;;;;16.89;83.43;96383.51;109717;1250;60176;-68
2022/09/15 05:54:32;;;;;;;8.80;5.40;;;;;;;17.02;83.88;96384.37;109905;1248;59651;-67
2022/09/15 05:57:02;;;;;;;6.70;5.10;;;;;;;17.23;84.11;96385.64;109965;1248;71547;-66
2022/09/15 05:59:38;;;;;;;6.30;4.50;;;;;;;17.50;84.50;96379.83;110193;1247;69747;-67
2022/09/15 06:02:10;;;;;;;6.40;4.80;;;;;;;17.81;82.89;96378.18;109769;1250;68643;-67
2022/09/15 06:04:42;;;;;;;6.10;3.60;;;;;;;18.13;81.40;96379.33;110008;1248;60103;-67
2022/09/15 06:07:22;;;;;;;5.50;3.60;;;;;;;18.42;79.92;96382.98;109936;1250;59716;-69
2022/09/15 06:09:56;;;;;;;4.40;2.80;;;;;;;18.76;79.92;96382.46;109801;1247;69645;-68
2022/09/15 06:12:27;;;;;;;4.00;3.20;;;;;;;19.08;77.81;96373.70;109806;1250;69619;-67
2022/09/15 06:14:58;;;;;;;4.60;3.60;;;;;;;19.39;76.10;96373.35;110031;1247;68631;-68
2022/09/15 06:17:31;;;;;;;4.30;3.10;;;;;;;19.68;76.77;96382.36;109992;1248;59703;-67
2022/09/15 06:20:05;;;;;;;5.20;3.70;;;;;;;19.94;73.64;96376.24;109564;1250;59770;-67
2022/09/15 06:22:38;;;;;;;6.70;4.30;;;;;;;20.16;74.47;96374.86;110114;1248;70727;-68
2022/09/15 06:25:08;;;;;;;7.00;3.80;;;;;;;20.30;74.21;96378.59;109855;1250;68704;-67
2022/09/15 06:27:40;;;;;;;8.50;3.70;;;;;;;20.43;70.32;96373.71;109761;1247;70866;-66
2022/09/15 06:30:14;;;;;;;6.10;3.60;;;;;;;20.56;71.70;96372.20;109832;1248;59731;-67
2022/09/15 06:32:47;;;;;;;4.50;3.20;;;;;;;20.64;68.03;96374.05;110104;1247;59710;-66
2022/09/15 06:35:17;;;;;;;4.50;3.20;;;;;;;20.75;68.59;96375.02;109783;1250;72774;-67
2022/09/15 06:37:48;;;;;;;6.60;3.80;;;;;;;20.81;69.02;96375.66;109902;1247;68369;-65
2022/09/15 06:40:20;;;;;;;6.20;4.10;;;;;;;20.90;67.69;96378.02;110115;1247;69679;-66
2022/09/15 06:42:55;;;;;;;5.00;4.50;;;;;;;20.98;68.51;96379.95;109997;1250;59755;-64
2022/09/15 06:45:25;;;;;;;6.40;3.70;;;;;;;21.15;66.84;96381.48;109998;1247;59694;-66
2022/09/15 06:47:56;;;;;;;6.90;3.90;;;;;;;21.38;66.45;96388.48;110028;1247;70700;-65
2022/09/15 06:50:53;;;;;;;3.90;2.80;;;;;;;21.53;66.36;96385.95;110007;1247;68607;-65
2022/09/15 06:53:23;;;;;;;6.40;3.10;;;;;;;21.57;63.55;96392.17;109998;1247;68660;-66
2022/09/15 06:55:52;;;;;;;3.80;3.00;;;;;;;21.52;63.28;96396.16;109705;1248;59709;-67
2022/09/15 06:58:21;;;;;;;4.80;3.20;;;;;;;21.49;64.26;96392.00;109888;1247;59714;-64
2022/09/15 07:00:51;;;;;;;3.50;2.30;;;;;;;21.37;63.43;96402.23;109795;1247;72109;-65
2022/09/15 07:03:19;;;;;;;5.90;3.00;;;;;;;21.32;63.82;96407.36;109969;1245;69536;-65
2022/09/15 07:05:49;;;;;;;4.40;2.80;;;;;;;21.29;64.27;96415.83;109995;1247;68769;-64
2022/09/15 07:08:23;;;;;;;5.00;3.00;;;;;;;21.21;63.99;96429.65;110057;1247;59685;-64
2022/09/15 07:11:01;;;;;;;4.00;3.50;;;;;;;21.11;64.59;96444.84;109983;1247;59725;-65
2022/09/15 07:13:30;;;;;;;6.20;3.60;;;;;;;21.00;65.35;96453.36;110035;1247;72209;-64
2022/09/15 07:16:02;;;;;;;5.50;3.70;;;;;;;20.78;66.21;96460.92;110035;1247;68721;-64
2022/09/15 07:18:45;;;;;;;6.50;3.70;;;;;;;20.66;66.09;96463.12;109916;1247;68922;-66
2022/09/15 07:21:18;;;;;;;7.70;3.20;;;;;;;20.63;66.11;96463.39;110125;1247;59734;-64
2022/09/15 07:23:48;;;;;;;4.70;3.50;;;;;;;20.65;65.98;96474.42;110077;1248;60018;-64
2022/09/15 07:26:25;;;;;;;7.10;3.70;;;;;;;20.59;66.55;96480.77;110115;1247;71109;-63
2022/09/15 07:29:02;;;;;;;5.60;4.00;;;;;;;20.52;67.05;96486.59;110002;1247;68723;-66
2022/09/15 07:31:33;;;;;;;5.80;3.40;;;;;;;20.50;67.65;96494.16;110142;1248;69648;-64
2022/09/15 07:34:02;;;;;;;6.60;4.10;;;;;;;20.48;66.65;96494.75;109999;1247;59802;-65
2022/09/15 07:36:32;;;;;;;6.10;3.50;;;;;;;20.45;66.00;96489.86;110098;1247;59687;-65
2022/09/15 07:39:05;;;;;;;7.30;3.90;;;;;;;20.45;65.29;96488.92;110004;1247;71087;-66
2022/09/15 07:41:34;;;;;;;5.90;3.70;;;;;;;20.51;65.61;96497.02;110016;1248;69454;-66
2022/09/15 07:44:07;;;;;;;4.90;3.40;;;;;;;20.53;65.04;96491.37;110094;1247;69305;-65
2022/09/15 07:46:35;;;;;;;7.20;3.50;;;;;;;20.58;64.89;96494.30;110065;1247;59676;-64
2022/09/15 07:49:05;;;;;;;6.30;3.10;;;;;;;20.69;65.10;96486.95;109883;1247;59694;-64
2022/09/15 07:51:34;;;;;;;4.80;3.40;;;;;;;20.76;64.01;96486.17;110051;1247;70758;-64
2022/09/15 07:54:04;;;;;;;6.00;3.00;;;;;;;20.81;64.65;96500.45;110154;1247;68326;-63
2022/09/15 07:56:33;;;;;;;4.50;3.20;;;;;;;20.87;64.07;96505.53;110073;1247;69408;-67
2022/09/15 07:59:01;;;;;;;6.30;3.30;;;;;;;20.90;63.97;96509.89;110072;1247;60085;-64
2022/09/15 08:01:30;;;;;;;7.80;3.50;;;;;;;20.93;63.49;96518.31;110077;1247;59681;-65
2022/09/15 08:04:00;;;;;;;6.70;3.10;;;;;;;20.94;63.37;96533.92;110168;1247;71703;-66
2022/09/15 08:06:29;;;;;;;;;;;;;;;20.93;63.40;96528.81;110071;1247;69460;-68
2022/09/15 08:08:58;;;;;;;5.60;3.30;;;;;;;20.88;63.27;96527.40;110073;1247;68673;-68
2022/09/15 08:11:28;;;;;;;6.70;3.10;;;;;;;20.90;63.68;96533.95;110009;1248;59663;-67
2022/09/15 08:14:01;;;;;;;4.80;3.20;;;;;;;20.91;63.70;96537.63;110197;1247;59733;-68
2022/09/15 08:16:30;;;;;;;6.50;3.40;;;;;;;20.92;64.07;96534.69;110219;1247;72232;-68
2022/09/15 08:18:59;;;;;;;4.60;2.90;;;;;;;20.90;63.74;96541.67;110160;1247;70049;-66
2022/09/15 08:21:28;;;;;;;5.00;2.80;;;;;;;20.91;64.09;96544.83;109825;1250;68516;-66
2022/09/15 08:23:59;;;;;;;4.30;2.70;;;;;;;20.89;64.90;96555.04;110067;1247;59742;-66
2022/09/15 08:26:30;;;;;;;6.00;3.30;;;;;;;20.83;64.53;96557.20;110058;1247;60152;-66
2022/09/15 08:29:00;;;;;;;4.30;3.40;;;;;;;20.79;64.36;96554.20;109711;1250;70870;-66
2022/09/15 08:31:29;;;;;;;4.60;3.40;;;;;;;20.78;65.17;96548.64;110037;1247;68479;-67
2022/09/15 08:34:02;;;;;;;6.00;3.10;;;;;;;20.77;64.91;96543.81;110048;1247;68034;-68
2022/09/15 08:36:34;;;;;;;5.60;3.20;;;;;;;20.79;65.26;96552.00;110065;1247;59744;-66
2022/09/15 08:39:03;;;;;;;4.90;3.20;;;;;;;20.75;65.40;96554.88;109815;1247;59699;-67
2022/09/15 08:41:40;;;;;;;4.80;3.10;;;;;;;20.75;65.28;96566.77;110032;1248;72237;-67
2022/09/15 08:44:43;;;;;;;4.00;3.20;;;;;;;20.72;65.58;96569.04;110003;1247;70035;-66
2022/09/15 08:47:13;;;;;;;4.80;3.00;;;;;;;20.66;66.08;96572.84;110027;1247;68481;-65
2022/09/15 08:50:04;;;;;;;5.30;3.40;;;;;;;20.60;66.00;96572.73;109716;1250;59722;-68
2022/09/15 08:52:44;;;;;;;6.10;3.50;;;;;;;20.54;66.36;96565.46;110089;1247;59683;-67
2022/09/15 08:55:43;;;;;;;5.00;3.70;;;;;;;20.48;66.60;96557.04;109904;1249;71668;-66
2022/09/15 08:58:34;;;;;;;8.60;4.20;;;;;;;20.50;66.46;96543.38;109807;1250;68764;-67
2022/09/15 09:04:34;;;;;;;4.30;3.20;;;;;;;20.54;68.13;96548.71;109949;1247;59752;-67
2022/09/15 09:07:24;;;;;;;6.40;3.30;;;;;;;20.55;69.70;96549.33;110027;1247;59658;-66
2022/09/15 09:10:05;;;;;;;4.60;3.40;;;;;;;20.53;69.86;96556.47;109957;1246;71877;-65
2022/09/15 09:12:54;;;;;;;4.60;2.60;;;;;;;20.52;69.07;96562.63;109806;1250;69964;-67
2022/09/15 09:15:59;;;;;;;4.90;2.80;;;;;;;20.48;68.90;96571.40;109764;1250;67496;-65
2022/09/15 09:18:51;;;;;;;4.40;3.20;;;;;;;20.42;69.19;96582.58;109750;1250;59748;-65
2022/09/15 09:21:34;;;;;;;4.40;3.30;;;;;;;20.32;69.44;96603.46;110027;1248;59660;-65
2022/09/15 09:24:12;;;;;;;5.40;3.70;;;;;;;20.22;70.32;96621.70;110049;1247;70931;-68
2022/09/15 09:26:43;;;;;;;6.10;3.70;;;;;;;20.04;72.94;96634.91;110093;1247;69502;-65
2022/09/15 09:29:22;;;;;;;4.10;3.80;;;;;;;19.80;74.28;96643.33;110039;1247;69421;-66
2022/09/15 09:31:52;;;;;;;8.20;3.80;;;;;;;19.30;78.03;96653.65;109726;1249;59679;-66
2022/09/15 09:35:16;;;;;;;5.80;4.10;;;;;;;19.10;79.66;96666.95;110025;1247;59688;-66
2022/09/15 09:37:45;;;;;;;7.60;4.00;;;;;;;19.04;80.02;96674.58;109091;1256;71796;-65
2022/09/15 09:40:15;;;;;;;5.40;3.60;;;;;;;18.70;82.33;96667.95;109657;1250;69729;-65
2022/09/15 09:42:45;;;;;;;4.90;4.20;;;;;;;18.78;82.08;96657.65;109992;1248;68739;-65
2022/09/15 09:45:17;;;;;;;4.50;4.00;;;;;;;18.79;83.50;96644.23;110030;1248;59691;-67
2022/09/15 09:47:46;;;;;;;6.20;4.40;;;;;;;18.99;83.35;96628.45;110086;1247;59768;-66
2022/09/15 09:50:30;;;;;;;5.10;3.80;;;;;;;19.10;84.24;96612.95;110138;1248;72124;-65
2022/09/15 09:53:19;;;;;;;4.20;3.70;;;;;;;19.19;84.23;96606.35;110063;1249;69418;-66
2022/09/15 09:55:48;;;;;;;5.50;4.50;;;;;;;19.29;83.44;96604.52;109978;1247;68490;-66
2022/09/15 09:58:23;;;;;;;5.00;3.10;;;;;;;19.19;84.97;96605.46;110029;1247;59779;-65
2022/09/15 10:00:52;;;;;;;4.50;3.90;;;;;;;19.18;86.43;96606.38;110059;1248;59631;-67
2022/09/15 10:03:25;;;;;;;6.10;4.10;;;;;;;19.12;85.34;96614.45;110080;1247;72216;-67
2022/09/15 10:06:12;;;;;;;4.90;3.70;;;;;;;18.92;86.88;96626.36;110033;1248;69846;-65
2022/09/15 10:08:58;;;;;;;6.20;5.10;;;;;;;18.79;87.97;96631.15;109701;1250;69405;-67
2022/09/15 10:11:41;;;;;;;6.40;5.40;;;;;;;18.69;87.98;96620.48;110012;1248;59684;-64
2022/09/15 10:14:30;;;;;;;6.30;5.70;;;;;;;18.62;88.64;96620.41;110026;1247;59675;-65
2022/09/15 10:17:00;;;;;;;7.90;6.80;;;;;;;18.58;89.16;96621.04;109644;1250;70787;-67
2022/09/15 10:19:33;;;;;;;8.30;6.30;;;;;;;18.60;89.34;96621.04;109718;1250;68341;-63
2022/09/15 10:22:03;;;;;;;7.40;6.30;;;;;;;18.53;90.23;96620.09;110015;1248;68985;-66
2022/09/15 10:24:37;;;;;;;6.80;6.10;;;;;;;18.52;89.45;96616.27;110038;1247;59717;-66
2022/09/15 10:27:16;;;;;;;7.50;5.70;;;;;;;18.59;89.47;96623.22;109873;1250;59711;-66
2022/09/15 10:29:46;;;;;;;7.70;6.90;;;;;;;18.59;90.02;96620.54;110068;1248;71364;-66
2022/09/15 10:32:24;;;;;;;5.20;4.70;;;;;;;18.65;91.27;96625.02;109861;1250;69059;-66
2022/09/15 10:35:13;;;;;;;5.50;4.60;;;;;;;18.80;90.00;96625.84;109888;1250;69577;-66
2022/09/15 10:38:10;;;;;;;6.10;5.40;;;;;;;18.90;88.40;96624.02;110056;1247;59697;-66
2022/09/15 10:41:06;;;;;;;5.70;5.10;;;;;;;18.93;88.71;96631.46;110045;1247;59691;-66
2022/09/15 10:43:55;;;;;;;7.20;5.40;;;;;;;18.91;89.37;96636.41;110039;1247;71373;-68
2022/09/15 10:46:42;;;;;;;6.20;5.00;;;;;;;18.97;88.61;96642.85;109725;1250;68997;-66
2022/09/15 10:49:33;;;;;;;6.00;4.80;;;;;;;19.02;88.28;96637.39;110049;1247;69301;-66
2022/09/15 10:52:29;;;;;;;6.40;5.30;;;;;;;19.11;89.15;96628.98;109996;1247;59732;-67
2022/09/15 10:55:07;;;;;;;6.80;4.20;;;;;;;19.29;86.94;96622.69;109994;1247;59718;-67
2022/09/15 10:57:59;;;;;;;5.00;3.70;;;;;;;19.41;86.49;96626.14;110094;1248;72224;-68
2022/09/15 11:01:07;;;;;;;7.10;4.60;;;;;;;19.72;85.85;96627.91;110109;1247;68869;-67
2022/09/15 11:03:41;;;;;;;6.90;3.30;;;;;;;20.27;83.90;96608.19;109633;1250;69502;-66
2022/09/15 11:06:39;;;;;;;4.90;3.40;;;;;;;20.96;80.36;96606.20;109911;1248;60058;-67
2022/09/15 11:09:16;;;;;;;3.50;2.80;;;;;;;21.56;77.78;96606.14;109649;1249;59677;-67
2022/09/15 11:12:00;;;;;;;4.00;3.00;;;;;;;21.78;75.53;96606.50;109975;1247;72271;-67
2022/09/15 11:14:57;;;;;;;2.90;2.60;;;;;;;22.08;73.83;96607.70;110070;1247;68934;-67
2022/09/15 11:17:58;;;;;;;3.00;2.70;;;;;;;22.06;73.97;96605.48;110034;1247;69458;-68
2022/09/15 11:20:38;;;;;;;3.70;2.70;;;;;;;22.46;71.59;96604.91;109993;1250;59677;-69
2022/09/15 11:23:17;;;;;;;3.70;2.40;;;;;;;22.59;70.21;96598.21;109826;1247;59695;-67
2022/09/15 11:25:55;;;;;;;3.40;2.60;;;;;;;22.61;68.97;96592.27;109879;1247;71587;-66
2022/09/15 11:28:34;;;;;;;4.00;2.70;;;;;;;22.98;69.58;96592.67;110017;1247;69570;-67
2022/09/15 11:31:18;;;;;;;4.80;2.90;;;;;;;23.41;68.18;96585.90;110062;1247;70100;-66
2022/09/15 11:34:28;;;;;;;2.90;2.10;;;;;;;23.74;66.27;96576.23;110049;1249;59749;-67
2022/09/15 11:37:03;;;;;;;5.00;2.20;;;;;;;24.11;64.32;96570.79;110008;1247;59741;-66
2022/09/15 11:39:38;;;;;;;3.80;2.50;;;;;;;24.44;61.47;96559.56;110010;1248;71800;-67
2022/09/15 11:42:21;;;;;;;3.30;2.00;;;;;;;24.96;59.78;96565.98;109876;1250;68506;-68
2022/09/15 11:44:50;;;;;;;2.80;2.00;;;;;;;25.45;59.84;96570.08;109887;1250;68860;-68
2022/09/15 11:47:23;;;;;;;1.70;1.20;;;;;;;25.68;56.76;96565.83;110050;1248;59783;-66
2022/09/15 11:50:15;;;;;;;1.90;1.10;;;;;;;25.97;54.37;96565.17;110120;1250;59626;-66
2022/09/15 11:53:04;;;;;;;3.50;1.70;;;;;;;26.24;54.86;96553.88;110061;1250;71461;-67
2022/09/15 11:56:02;;;;;;;2.40;1.50;;;;;;;26.28;53.10;96547.86;110002;1249;68657;-66
2022/09/15 11:58:45;;;;;;;1.80;1.40;;;;;;;26.77;52.06;96544.61;109597;1247;69309;-66
2022/09/15 12:01:26;;;;;;;1.20;1.00;;;;;;;27.05;50.92;96537.27;109835;1247;59691;-67
2022/09/15 12:04:07;;;;;;;1.90;1.10;;;;;;;27.68;51.95;96540.39;110220;1248;59691;-65
2022/09/15 12:06:53;;;;;;;2.10;1.60;;;;;;;28.52;48.81;96536.61;110187;1248;72076;-66
2022/09/15 12:09:22;;;;;;;3.40;1.70;;;;;;;28.79;47.81;96530.11;110006;1250;69222;-68
2022/09/15 12:11:56;;;;;;;3.60;1.90;;;;;;;29.24;47.11;96529.50;109646;1250;69647;-68